sensor_id;sensor_type;location;lat;lon;timestamp;pressure;altitude;pressure_sealevel;temperature;humidity
54994;BME280;40891;47.242;8.648;2023-02-20T00:01:50;97564.78;;;8.41;90.00
54994;BME280;40891;47.242;8.648;2023-02-20T00:04:16;97566.75;;;8.41;90.28
54994;BME280;40891;47.242;8.648;2023-02-20T00:06:42;97559.25;;;8.38;91.53
54994;BME280;40891;47.242;8.648;2023-02-20T00:09:07;97564.47;;;8.32;91.45
54994;BME280;40891;47.242;8.648;2023-02-20T00:11:33;97560.53;;;8.26;91.89
54994;BME280;40891;47.242;8.648;2023-02-20T00:13:58;97562.53;;;8.22;91.29
54994;BME280;40891;47.242;8.648;2023-02-20T00:16:23;97566.38;;;8.39;89.28
54994;BME280;40891;47.242;8.648;2023-02-20T00:18:49;97565.28;;;8.29;89.17
54994;BME280;40891;47.242;8.648;2023-02-20T00:21:14;97563.72;;;8.28;88.98
54994;BME280;40891;47.242;8.648;2023-02-20T00:23:40;97567.25;;;8.25;89.16
54994;BME280;40891;47.242;8.648;2023-02-20T00:26:13;97577.94;;;8.27;89.29
54994;BME280;40891;47.242;8.648;2023-02-20T00:28:40;97572.00;;;8.24;87.83
54994;BME280;40891;47.242;8.648;2023-02-20T00:31:06;97571.22;;;8.28;87.37
54994;BME280;40891;47.242;8.648;2023-02-20T00:33:32;97577.53;;;8.32;86.41
54994;BME280;40891;47.242;8.648;2023-02-20T00:35:58;97579.88;;;8.33;86.18
54994;BME280;40891;47.242;8.648;2023-02-20T00:38:23;97582.66;;;8.33;86.82
54994;BME280;40891;47.242;8.648;2023-02-20T00:40:48;97577.53;;;8.32;86.71
54994;BME280;40891;47.242;8.648;2023-02-20T00:43:13;97583.44;;;8.34;87.13
54994;BME280;40891;47.242;8.648;2023-02-20T00:45:39;97575.94;;;8.31;87.46
54994;BME280;40891;47.242;8.648;2023-02-20T00:48:04;97577.56;;;8.28;87.94
54994;BME280;40891;47.242;8.648;2023-02-20T00:50:30;97581.53;;;8.27;88.17
54994;BME280;40891;47.242;8.648;2023-02-20T00:52:55;97573.59;;;8.26;88.19
54994;BME280;40891;47.242;8.648;2023-02-20T00:55:20;97589.44;;;8.25;88.76
54994;BME280;40891;47.242;8.648;2023-02-20T00:57:46;97583.91;;;8.21;88.87
54994;BME280;40891;47.242;8.648;2023-02-20T01:00:21;97587.88;;;8.20;88.30
54994;BME280;40891;47.242;8.648;2023-02-20T01:02:47;97586.66;;;8.21;88.70
54994;BME280;40891;47.242;8.648;2023-02-20T01:05:12;97582.34;;;8.20;88.46
54994;BME280;40891;47.242;8.648;2023-02-20T01:07:37;97584.28;;;8.23;88.29
54994;BME280;40891;47.242;8.648;2023-02-20T01:10:03;97583.09;;;8.24;88.52
54994;BME280;40891;47.242;8.648;2023-02-20T01:12:29;97598.16;;;8.27;89.28
54994;BME280;40891;47.242;8.648;2023-02-20T01:14:54;97595.75;;;8.26;88.79
54994;BME280;40891;47.242;8.648;2023-02-20T01:17:20;97589.41;;;8.29;89.26
54994;BME280;40891;47.242;8.648;2023-02-20T01:19:45;97596.13;;;8.31;86.75
54994;BME280;40891;47.242;8.648;2023-02-20T01:22:10;97587.81;;;8.31;85.46
54994;BME280;40891;47.242;8.648;2023-02-20T01:24:36;97585.41;;;8.37;84.92
54994;BME280;40891;47.242;8.648;2023-02-20T01:27:01;97590.91;;;8.40;83.98
54994;BME280;40891;47.242;8.648;2023-02-20T01:29:27;97590.94;;;8.37;84.97
54994;BME280;40891;47.242;8.648;2023-02-20T01:31:52;97598.84;;;8.38;85.43
54994;BME280;40891;47.242;8.648;2023-02-20T01:34:18;97603.59;;;8.38;86.39
54994;BME280;40891;47.242;8.648;2023-02-20T01:36:49;97601.28;;;8.29;86.32
54994;BME280;40891;47.242;8.648;2023-02-20T01:39:16;97595.75;;;8.26;87.13
54994;BME280;40891;47.242;8.648;2023-02-20T01:41:42;97605.25;;;8.21;86.67
54994;BME280;40891;47.242;8.648;2023-02-20T01:44:17;97600.50;;;8.21;87.64
54994;BME280;40891;47.242;8.648;2023-02-20T01:46:46;97593.03;;;8.18;85.91
54994;BME280;40891;47.242;8.648;2023-02-20T01:49:15;97598.97;;;8.20;85.81
54994;BME280;40891;47.242;8.648;2023-02-20T01:51:46;97591.84;;;8.19;85.96
54994;BME280;40891;47.242;8.648;2023-02-20T01:54:16;97586.28;;;8.23;85.90
54994;BME280;40891;47.242;8.648;2023-02-20T01:56:44;97590.66;;;8.20;86.19
54994;BME280;40891;47.242;8.648;2023-02-20T01:59:11;97589.81;;;8.23;86.22
54994;BME280;40891;47.242;8.648;2023-02-20T02:01:37;97583.09;;;8.24;85.37
54994;BME280;40891;47.242;8.648;2023-02-20T02:04:06;97588.66;;;8.21;86.19
54994;BME280;40891;47.242;8.648;2023-02-20T02:06:33;97581.56;;;8.16;86.61
54994;BME280;40891;47.242;8.648;2023-02-20T02:09:06;97583.19;;;8.10;86.30
54994;BME280;40891;47.242;8.648;2023-02-20T02:11:33;97587.56;;;8.08;86.98
54994;BME280;40891;47.242;8.648;2023-02-20T02:14:01;97594.28;;;8.10;86.85
54994;BME280;40891;47.242;8.648;2023-02-20T02:38:35;97574.69;;;7.84;88.25
54994;BME280;40891;47.242;8.648;2023-02-20T02:43:59;97570.03;;;7.70;86.91
54994;BME280;40891;47.242;8.648;2023-02-20T02:46:42;97566.13;;;7.61;88.20
54994;BME280;40891;47.242;8.648;2023-02-20T02:49:16;97568.50;;;7.55;87.67
54994;BME280;40891;47.242;8.648;2023-02-20T02:51:44;97570.53;;;7.51;87.43
54994;BME280;40891;47.242;8.648;2023-02-20T02:54:17;97559.88;;;7.46;87.20
54994;BME280;40891;47.242;8.648;2023-02-20T02:56:51;97546.47;;;7.41;88.29
54994;BME280;40891;47.242;8.648;2023-02-20T02:59:21;97544.53;;;7.34;87.13
54994;BME280;40891;47.242;8.648;2023-02-20T03:01:56;97547.31;;;7.31;87.83
54994;BME280;40891;47.242;8.648;2023-02-20T03:04:27;97552.44;;;7.29;87.72
54994;BME280;40891;47.242;8.648;2023-02-20T03:06:56;97556.06;;;7.19;88.52
54994;BME280;40891;47.242;8.648;2023-02-20T03:09:27;97556.47;;;7.10;89.70
54994;BME280;40891;47.242;8.648;2023-02-20T03:11:55;97559.28;;;7.00;90.19
54994;BME280;40891;47.242;8.648;2023-02-20T03:14:25;97557.34;;;6.90;91.05
54994;BME280;40891;47.242;8.648;2023-02-20T03:17:22;97556.19;;;6.83;90.95
54994;BME280;40891;47.242;8.648;2023-02-20T03:19:52;97556.59;;;6.78;91.22
54994;BME280;40891;47.242;8.648;2023-02-20T03:22:35;97556.22;;;6.73;91.00
54994;BME280;40891;47.242;8.648;2023-02-20T03:25:11;97556.63;;;6.71;90.61
54994;BME280;40891;47.242;8.648;2023-02-20T03:28:04;97556.63;;;6.68;89.42
54994;BME280;40891;47.242;8.648;2023-02-20T03:30:29;97555.44;;;6.69;90.01
54994;BME280;40891;47.242;8.648;2023-02-20T03:33:03;97557.00;;;6.70;89.42
54994;BME280;40891;47.242;8.648;2023-02-20T03:35:48;97564.50;;;6.66;89.70
54994;BME280;40891;47.242;8.648;2023-02-20T03:38:36;97553.88;;;6.61;89.71
54994;BME280;40891;47.242;8.648;2023-02-20T03:41:22;97554.66;;;6.58;90.37
54994;BME280;40891;47.242;8.648;2023-02-20T03:44:09;97554.25;;;6.56;91.37
54994;BME280;40891;47.242;8.648;2023-02-20T03:46:37;97545.22;;;6.55;90.81
54994;BME280;40891;47.242;8.648;2023-02-20T03:49:08;97546.38;;;6.51;91.08
54994;BME280;40891;47.242;8.648;2023-02-20T03:51:35;97546.38;;;6.51;90.53
54994;BME280;40891;47.242;8.648;2023-02-20T03:54:01;97547.19;;;6.48;90.72
54994;BME280;40891;47.242;8.648;2023-02-20T03:56:42;97546.00;;;6.45;91.36
54994;BME280;40891;47.242;8.648;2023-02-20T03:59:21;97547.19;;;6.44;91.41
54994;BME280;40891;47.242;8.648;2023-02-20T04:01:51;97542.03;;;6.46;91.27
54994;BME280;40891;47.242;8.648;2023-02-20T04:04:39;97537.34;;;6.43;90.66
54994;BME280;40891;47.242;8.648;2023-02-20T04:07:11;97542.06;;;6.39;91.34
54994;BME280;40891;47.242;8.648;2023-02-20T04:09:42;97529.06;;;6.36;91.71
54994;BME280;40891;47.242;8.648;2023-02-20T04:12:29;97523.16;;;6.31;91.58
54994;BME280;40891;47.242;8.648;2023-02-20T04:14:57;97522.75;;;6.25;92.07
54994;BME280;40891;47.242;8.648;2023-02-20T04:17:27;97525.50;;;6.18;91.34
54994;BME280;40891;47.242;8.648;2023-02-20T04:19:54;97524.72;;;6.10;92.22
54994;BME280;40891;47.242;8.648;2023-02-20T04:22:25;97527.50;;;6.07;92.36
54994;BME280;40891;47.242;8.648;2023-02-20T04:25:00;97531.84;;;6.01;92.32
54994;BME280;40891;47.242;8.648;2023-02-20T04:27:26;97532.63;;;5.94;92.47
54994;BME280;40891;47.242;8.648;2023-02-20T04:29:51;97524.75;;;5.93;92.89
54994;BME280;40891;47.242;8.648;2023-02-20T04:32:17;97528.28;;;5.90;92.46
54994;BME280;40891;47.242;8.648;2023-02-20T04:34:43;97530.25;;;5.86;92.97
54994;BME280;40891;47.242;8.648;2023-02-20T04:37:12;97517.63;;;5.85;93.22
54994;BME280;40891;47.242;8.648;2023-02-20T04:39:37;97515.22;;;5.80;92.44
54994;BME280;40891;47.242;8.648;2023-02-20T04:42:04;97519.59;;;5.70;93.02
54994;BME280;40891;47.242;8.648;2023-02-20T04:44:29;97510.91;;;5.68;93.78
54994;BME280;40891;47.242;8.648;2023-02-20T04:47:00;97519.16;;;5.61;93.94
54994;BME280;40891;47.242;8.648;2023-02-20T04:49:26;97516.00;;;5.59;94.17
54994;BME280;40891;47.242;8.648;2023-02-20T04:51:52;97523.91;;;5.57;94.00
54994;BME280;40891;47.242;8.648;2023-02-20T04:54:17;97522.31;;;5.53;93.32
54994;BME280;40891;47.242;8.648;2023-02-20T04:56:43;97525.84;;;5.49;94.52
54994;BME280;40891;47.242;8.648;2023-02-20T04:59:08;97531.38;;;5.46;93.71
54994;BME280;40891;47.242;8.648;2023-02-20T05:01:34;97524.28;;;5.41;95.15
54994;BME280;40891;47.242;8.648;2023-02-20T05:04:00;97516.38;;;5.36;95.05
54994;BME280;40891;47.242;8.648;2023-02-20T05:06:25;97509.69;;;5.34;95.51
54994;BME280;40891;47.242;8.648;2023-02-20T05:08:50;97509.69;;;5.34;95.45
54994;BME280;40891;47.242;8.648;2023-02-20T05:11:16;97506.50;;;5.35;96.00
54994;BME280;40891;47.242;8.648;2023-02-20T05:13:41;97508.91;;;5.37;95.81
54994;BME280;40891;47.242;8.648;2023-02-20T05:16:07;97502.59;;;5.36;95.83
54994;BME280;40891;47.242;8.648;2023-02-20T05:18:33;97503.75;;;5.35;96.40
54994;BME280;40891;47.242;8.648;2023-02-20T05:20:58;97508.88;;;5.33;96.26
54994;BME280;40891;47.242;8.648;2023-02-20T05:23:45;97508.88;;;5.30;96.59
54994;BME280;40891;47.242;8.648;2023-02-20T05:26:12;97514.41;;;5.30;96.06
54994;BME280;40891;47.242;8.648;2023-02-20T05:28:38;97513.22;;;5.27;95.98
54994;BME280;40891;47.242;8.648;2023-02-20T05:31:06;97515.19;;;5.27;96.30
54994;BME280;40891;47.242;8.648;2023-02-20T05:33:32;97509.63;;;5.23;95.91
54994;BME280;40891;47.242;8.648;2023-02-20T05:35:58;97511.59;;;5.19;96.38
54994;BME280;40891;47.242;8.648;2023-02-20T05:38:23;97523.78;;;5.18;96.52
54994;BME280;40891;47.242;8.648;2023-02-20T05:40:48;97518.28;;;5.15;96.49
54994;BME280;40891;47.242;8.648;2023-02-20T05:43:15;97508.81;;;5.12;96.67
54994;BME280;40891;47.242;8.648;2023-02-20T05:45:41;97509.59;;;5.09;97.49
54994;BME280;40891;47.242;8.648;2023-02-20T05:48:06;97512.75;;;5.08;96.95
54994;BME280;40891;47.242;8.648;2023-02-20T05:50:32;97513.16;;;5.06;97.21
54994;BME280;40891;47.242;8.648;2023-02-20T05:52:57;97517.47;;;5.04;97.14
54994;BME280;40891;47.242;8.648;2023-02-20T05:55:22;97509.19;;;5.04;97.39
54994;BME280;40891;47.242;8.648;2023-02-20T05:57:48;97502.50;;;5.05;96.76
54994;BME280;40891;47.242;8.648;2023-02-20T06:00:13;97503.28;;;5.05;97.55
54994;BME280;40891;47.242;8.648;2023-02-20T06:02:39;97503.69;;;5.04;97.48
54994;BME280;40891;47.242;8.648;2023-02-20T06:05:04;97503.28;;;5.09;97.38
54994;BME280;40891;47.242;8.648;2023-02-20T06:07:32;97497.78;;;5.05;98.52
54994;BME280;40891;47.242;8.648;2023-02-20T06:09:57;97496.22;;;5.08;99.93
54994;BME280;40891;47.242;8.648;2023-02-20T06:12:23;97495.03;;;5.09;100.00
54994;BME280;40891;47.242;8.648;2023-02-20T06:14:48;97498.56;;;5.09;100.00
54994;BME280;40891;47.242;8.648;2023-02-20T06:17:13;97495.03;;;5.09;100.00
54994;BME280;40891;47.242;8.648;2023-02-20T06:19:39;97498.19;;;5.11;100.00
54994;BME280;40891;47.242;8.648;2023-02-20T06:22:04;97504.09;;;5.09;100.00
54994;BME280;40891;47.242;8.648;2023-02-20T06:24:30;97496.22;;;5.08;100.00
54994;BME280;40891;47.242;8.648;2023-02-20T06:26:56;97499.75;;;5.05;100.00
54994;BME280;40891;47.242;8.648;2023-02-20T06:29:21;97490.69;;;5.04;100.00
54994;BME280;40891;47.242;8.648;2023-02-20T06:31:47;97497.00;;;5.05;100.00
54994;BME280;40891;47.242;8.648;2023-02-20T06:34:13;97500.94;;;5.07;100.00
54994;BME280;40891;47.242;8.648;2023-02-20T06:36:40;97502.53;;;5.15;100.00
54994;BME280;40891;47.242;8.648;2023-02-20T06:39:07;97504.91;;;5.24;100.00
54994;BME280;40891;47.242;8.648;2023-02-20T06:41:33;97509.25;;;5.28;100.00
54994;BME280;40891;47.242;8.648;2023-02-20T06:43:58;97504.13;;;5.30;100.00
54994;BME280;40891;47.242;8.648;2023-02-20T06:46:24;97504.91;;;5.24;100.00
54994;BME280;40891;47.242;8.648;2023-02-20T06:48:52;97504.16;;;5.27;100.00
54994;BME280;40891;47.242;8.648;2023-02-20T06:51:20;97506.53;;;5.32;100.00
54994;BME280;40891;47.242;8.648;2023-02-20T06:53:46;97508.09;;;5.36;100.00
54994;BME280;40891;47.242;8.648;2023-02-20T06:56:18;97506.94;;;5.41;100.00
54994;BME280;40891;47.242;8.648;2023-02-20T06:58:48;97506.16;;;5.47;100.00
54994;BME280;40891;47.242;8.648;2023-02-20T07:01:15;97513.25;;;5.56;100.00
54994;BME280;40891;47.242;8.648;2023-02-20T07:03:41;97508.94;;;5.58;100.00
54994;BME280;40891;47.242;8.648;2023-02-20T07:06:07;97507.38;;;5.68;99.97
54994;BME280;40891;47.242;8.648;2023-02-20T07:08:33;97504.19;;;5.73;99.78
54994;BME280;40891;47.242;8.648;2023-02-20T07:10:58;97506.63;;;5.95;97.54
54994;BME280;40891;47.242;8.648;2023-02-20T07:13:23;97510.94;;;6.00;95.59
54994;BME280;40891;47.242;8.648;2023-02-20T07:15:49;97501.88;;;6.03;94.56
54994;BME280;40891;47.242;8.648;2023-02-20T07:18:15;97496.69;;;6.40;92.29
54994;BME280;40891;47.242;8.648;2023-02-20T07:20:41;97497.06;;;6.49;91.42
54994;BME280;40891;47.242;8.648;2023-02-20T07:23:07;97488.72;;;6.63;90.17
54994;BME280;40891;47.242;8.648;2023-02-20T07:25:32;97487.41;;;7.00;90.94
54994;BME280;40891;47.242;8.648;2023-02-20T07:27:57;97489.47;;;7.54;86.40
54994;BME280;40891;47.242;8.648;2023-02-20T07:30:23;97481.72;;;8.34;83.69
54994;BME280;40891;47.242;8.648;2023-02-20T07:32:49;97476.16;;;9.05;79.21
54994;BME280;40891;47.242;8.648;2023-02-20T07:35:15;97478.47;;;9.67;75.81
54994;BME280;40891;47.242;8.648;2023-02-20T07:37:40;97470.59;;;10.35;72.73
54994;BME280;40891;47.242;8.648;2023-02-20T07:40:06;97467.16;;;10.90;69.54
54994;BME280;40891;47.242;8.648;2023-02-20T07:42:31;97466.63;;;11.15;67.24
54994;BME280;40891;47.242;8.648;2023-02-20T07:44:57;97461.84;;;11.71;65.96
54994;BME280;40891;47.242;8.648;2023-02-20T07:47:22;97464.56;;;12.22;65.53
54994;BME280;40891;47.242;8.648;2023-02-20T07:49:47;97453.66;;;12.73;62.70
54994;BME280;40891;47.242;8.648;2023-02-20T07:52:13;97439.75;;;13.27;60.75
54994;BME280;40891;47.242;8.648;2023-02-20T07:54:38;97441.56;;;13.58;59.89
54994;BME280;40891;47.242;8.648;2023-02-20T07:57:03;97436.81;;;14.06;57.64
54994;BME280;40891;47.242;8.648;2023-02-20T07:59:29;97431.16;;;14.44;55.83
54994;BME280;40891;47.242;8.648;2023-02-20T08:01:54;97439.28;;;14.63;55.82
54994;BME280;40891;47.242;8.648;2023-02-20T08:04:19;97442.56;;;14.83;55.79
54994;BME280;40891;47.242;8.648;2023-02-20T08:06:45;97434.81;;;14.87;54.59
54994;BME280;40891;47.242;8.648;2023-02-20T08:09:10;97436.63;;;14.81;54.31
54994;BME280;40891;47.242;8.648;2023-02-20T08:11:36;97438.13;;;14.39;55.31
54994;BME280;40891;47.242;8.648;2023-02-20T08:14:03;97441.09;;;13.98;56.39
54994;BME280;40891;47.242;8.648;2023-02-20T08:16:29;97440.50;;;13.15;58.99
54994;BME280;40891;47.242;8.648;2023-02-20T08:18:54;97443.16;;;12.77;61.15
54994;BME280;40891;47.242;8.648;2023-02-20T08:21:20;97448.13;;;12.41;63.56
54994;BME280;40891;47.242;8.648;2023-02-20T08:23:45;97450.44;;;11.97;65.85
54994;BME280;40891;47.242;8.648;2023-02-20T08:26:11;97449.41;;;11.75;66.79
54994;BME280;40891;47.242;8.648;2023-02-20T08:28:37;97448.84;;;12.28;64.09
54994;BME280;40891;47.242;8.648;2023-02-20T08:31:02;97433.31;;;13.68;59.39
54994;BME280;40891;47.242;8.648;2023-02-20T08:33:27;97421.97;;;15.21;52.93
54994;BME280;40891;47.242;8.648;2023-02-20T08:35:53;97412.59;;;16.43;48.52
54994;BME280;40891;47.242;8.648;2023-02-20T08:38:33;97410.25;;;17.14;46.69
54994;BME280;40891;47.242;8.648;2023-02-20T08:41:07;97412.53;;;17.52;44.97
54994;BME280;40891;47.242;8.648;2023-02-20T08:43:37;97397.56;;;18.11;42.72
54994;BME280;40891;47.242;8.648;2023-02-20T08:46:04;97400.28;;;18.53;41.92
54994;BME280;40891;47.242;8.648;2023-02-20T08:48:30;97392.19;;;19.37;40.10
54994;BME280;40891;47.242;8.648;2023-02-20T08:50:55;97380.38;;;20.03;39.35
54994;BME280;40891;47.242;8.648;2023-02-20T08:53:21;97387.16;;;20.46;38.13
54994;BME280;40891;47.242;8.648;2023-02-20T08:55:46;97377.84;;;20.60;37.10
54994;BME280;40891;47.242;8.648;2023-02-20T08:58:12;97396.41;;;21.07;36.37
54994;BME280;40891;47.242;8.648;2023-02-20T09:00:38;97384.66;;;22.02;35.10
54994;BME280;40891;47.242;8.648;2023-02-20T09:03:03;97386.97;;;22.03;34.92
54994;BME280;40891;47.242;8.648;2023-02-20T09:05:32;97376.34;;;22.35;33.81
54994;BME280;40891;47.242;8.648;2023-02-20T09:07:58;97375.41;;;22.55;33.49
54994;BME280;40891;47.242;8.648;2023-02-20T09:10:24;97374.56;;;22.38;33.31
54994;BME280;40891;47.242;8.648;2023-02-20T09:12:49;97370.03;;;22.62;32.82
54994;BME280;40891;47.242;8.648;2023-02-20T09:15:15;97375.59;;;22.99;32.20
54994;BME280;40891;47.242;8.648;2023-02-20T09:17:49;97375.03;;;22.78;32.03
54994;BME280;40891;47.242;8.648;2023-02-20T09:20:16;97375.66;;;23.27;31.55
54994;BME280;40891;47.242;8.648;2023-02-20T09:22:42;97372.63;;;23.58;31.15
54994;BME280;40891;47.242;8.648;2023-02-20T09:25:09;97372.09;;;23.76;30.61
54994;BME280;40891;47.242;8.648;2023-02-20T09:27:35;97374.91;;;24.20;30.24
54994;BME280;40891;47.242;8.648;2023-02-20T09:30:00;97362.84;;;24.72;29.21
54994;BME280;40891;47.242;8.648;2023-02-20T09:32:26;97367.69;;;24.93;28.67
54994;BME280;40891;47.242;8.648;2023-02-20T09:34:51;97370.94;;;25.09;28.46
54994;BME280;40891;47.242;8.648;2023-02-20T09:37:16;97378.28;;;25.75;28.31
54994;BME280;40891;47.242;8.648;2023-02-20T09:39:42;97371.16;;;25.92;26.86
54994;BME280;40891;47.242;8.648;2023-02-20T09:47:29;97365.72;;;25.59;27.71
54994;BME280;40891;47.242;8.648;2023-02-20T09:50:02;97360.59;;;25.82;27.45
54994;BME280;40891;47.242;8.648;2023-02-20T09:52:30;97349.88;;;27.09;25.85
54994;BME280;40891;47.242;8.648;2023-02-20T09:55:02;97351.78;;;27.00;26.67
54994;BME280;40891;47.242;8.648;2023-02-20T09:57:30;97356.31;;;27.65;25.68
54994;BME280;40891;47.242;8.648;2023-02-20T10:00:05;97341.25;;;27.64;25.24
54994;BME280;40891;47.242;8.648;2023-02-20T10:02:43;97344.69;;;28.08;24.52
54994;BME280;40891;47.242;8.648;2023-02-20T10:05:21;97341.59;;;28.97;23.43
54994;BME280;40891;47.242;8.648;2023-02-20T10:07:48;97334.50;;;28.65;23.75
54994;BME280;40891;47.242;8.648;2023-02-20T10:10:21;97329.84;;;29.55;23.10
54994;BME280;40891;47.242;8.648;2023-02-20T10:16:14;97334.78;;;29.34;22.90
54994;BME280;40891;47.242;8.648;2023-02-20T10:24:34;97348.81;;;30.20;22.30
54994;BME280;40891;47.242;8.648;2023-02-20T10:27:28;97347.88;;;29.77;22.20
54994;BME280;40891;47.242;8.648;2023-02-20T10:29:55;97344.06;;;29.61;22.29
54994;BME280;40891;47.242;8.648;2023-02-20T10:32:29;97339.44;;;30.20;21.74
54994;BME280;40891;47.242;8.648;2023-02-20T10:35:04;97341.53;;;30.68;20.67
54994;BME280;40891;47.242;8.648;2023-02-20T10:37:42;97336.94;;;30.16;21.36
54994;BME280;40891;47.242;8.648;2023-02-20T10:40:36;97331.78;;;30.71;20.85
54994;BME280;40891;47.242;8.648;2023-02-20T10:43:11;97315.34;;;31.23;20.46
54994;BME280;40891;47.242;8.648;2023-02-20T10:45:53;97315.84;;;31.65;19.94
54994;BME280;40891;47.242;8.648;2023-02-20T10:48:25;97316.03;;;32.72;19.15
54994;BME280;40891;47.242;8.648;2023-02-20T10:51:05;97333.59;;;31.33;20.81
54994;BME280;40891;47.242;8.648;2023-02-20T11:01:22;97331.00;;;29.52;22.31
54994;BME280;40891;47.242;8.648;2023-02-20T11:04:11;97316.69;;;30.50;20.89
54994;BME280;40891;47.242;8.648;2023-02-20T11:06:42;97308.28;;;30.80;20.88
54994;BME280;40891;47.242;8.648;2023-02-20T11:09:09;97300.75;;;31.13;21.17
54994;BME280;40891;47.242;8.648;2023-02-20T11:11:45;97305.50;;;30.67;20.94
54994;BME280;40891;47.242;8.648;2023-02-20T11:14:23;97296.69;;;32.28;20.09
54994;BME280;40891;47.242;8.648;2023-02-20T11:16:58;97288.97;;;32.38;19.73
54994;BME280;40891;47.242;8.648;2023-02-20T11:19:43;97286.75;;;32.91;19.19
54994;BME280;40891;47.242;8.648;2023-02-20T11:22:09;97284.72;;;32.61;19.35
54994;BME280;40891;47.242;8.648;2023-02-20T11:24:39;97285.56;;;32.94;19.17
54994;BME280;40891;47.242;8.648;2023-02-20T11:27:12;97282.19;;;33.52;18.59
54994;BME280;40891;47.242;8.648;2023-02-20T11:29:53;97276.16;;;31.93;19.72
54994;BME280;40891;47.242;8.648;2023-02-20T11:34:44;97266.75;;;32.93;18.89
54994;BME280;40891;47.242;8.648;2023-02-20T11:37:10;97263.06;;;32.30;19.27
54994;BME280;40891;47.242;8.648;2023-02-20T11:39:36;97257.13;;;32.98;18.46
54994;BME280;40891;47.242;8.648;2023-02-20T11:42:17;97255.81;;;31.84;19.84
54994;BME280;40891;47.242;8.648;2023-02-20T11:44:44;97246.22;;;32.89;18.97
54994;BME280;40891;47.242;8.648;2023-02-20T11:49:47;97230.66;;;33.49;17.83
54994;BME280;40891;47.242;8.648;2023-02-20T11:52:21;97233.78;;;32.71;19.67
54994;BME280;40891;47.242;8.648;2023-02-20T11:55:10;97224.19;;;32.69;18.89
54994;BME280;40891;47.242;8.648;2023-02-20T11:57:42;97216.19;;;32.45;18.81
54994;BME280;40891;47.242;8.648;2023-02-20T12:03:17;97204.03;;;33.09;18.15
54994;BME280;40891;47.242;8.648;2023-02-20T12:05:46;97188.63;;;33.14;18.25
54994;BME280;40891;47.242;8.648;2023-02-20T12:10:58;97179.56;;;33.42;18.39
54994;BME280;40891;47.242;8.648;2023-02-20T12:13:26;97176.00;;;33.58;17.98
54994;BME280;40891;47.242;8.648;2023-02-20T12:16:02;97173.00;;;33.91;17.89
54994;BME280;40891;47.242;8.648;2023-02-20T12:18:39;97166.31;;;34.40;16.99
54994;BME280;40891;47.242;8.648;2023-02-20T12:21:16;97176.16;;;34.19;16.80
54994;BME280;40891;47.242;8.648;2023-02-20T12:26:42;97179.25;;;34.21;17.14
54994;BME280;40891;47.242;8.648;2023-02-20T12:29:36;97181.81;;;33.76;17.35
54994;BME280;40891;47.242;8.648;2023-02-20T12:34:58;97155.66;;;32.92;18.36
54994;BME280;40891;47.242;8.648;2023-02-20T12:37:39;97154.78;;;33.64;17.58
54994;BME280;40891;47.242;8.648;2023-02-20T12:42:56;97141.31;;;34.69;17.95
54994;BME280;40891;47.242;8.648;2023-02-20T12:45:41;97148.16;;;34.12;17.91
54994;BME280;40891;47.242;8.648;2023-02-20T12:48:36;97128.88;;;35.03;17.07
54994;BME280;40891;47.242;8.648;2023-02-20T12:51:19;97131.78;;;33.56;18.61
54994;BME280;40891;47.242;8.648;2023-02-20T12:54:42;97116.72;;;34.77;17.35
54994;BME280;40891;47.242;8.648;2023-02-20T12:57:24;97113.22;;;35.06;17.43
54994;BME280;40891;47.242;8.648;2023-02-20T13:00:00;97102.69;;;36.31;17.01
54994;BME280;40891;47.242;8.648;2023-02-20T13:02:35;97120.53;;;33.18;19.11
54994;BME280;40891;47.242;8.648;2023-02-20T13:05:02;97121.78;;;32.28;20.41
54994;BME280;40891;47.242;8.648;2023-02-20T13:07:35;97109.13;;;32.71;18.78
54994;BME280;40891;47.242;8.648;2023-02-20T13:10:07;97098.22;;;33.43;16.88
54994;BME280;40891;47.242;8.648;2023-02-20T13:12:37;97091.47;;;33.66;16.88
54994;BME280;40891;47.242;8.648;2023-02-20T13:20:48;97091.75;;;33.35;16.51
54994;BME280;40891;47.242;8.648;2023-02-20T13:23:05;97077.59;;;33.47;16.00
54994;BME280;40891;47.242;8.648;2023-02-20T13:25:50;97084.81;;;33.38;16.25
54994;BME280;40891;47.242;8.648;2023-02-20T13:28:39;97078.88;;;32.47;16.88
54994;BME280;40891;47.242;8.648;2023-02-20T13:31:10;97079.75;;;33.22;17.04
54994;BME280;40891;47.242;8.648;2023-02-20T13:33:38;97070.16;;;33.19;17.40
54994;BME280;40891;47.242;8.648;2023-02-20T13:36:05;97061.34;;;33.59;17.04
54994;BME280;40891;47.242;8.648;2023-02-20T13:38:39;97053.69;;;33.54;17.15
54994;BME280;40891;47.242;8.648;2023-02-20T13:41:06;97054.97;;;33.78;17.08
54994;BME280;40891;47.242;8.648;2023-02-20T13:43:33;97044.28;;;33.71;17.14
54994;BME280;40891;47.242;8.648;2023-02-20T13:48:52;97027.38;;;34.45;16.82
54994;BME280;40891;47.242;8.648;2023-02-20T13:56:42;97025.09;;;33.66;17.41
54994;BME280;40891;47.242;8.648;2023-02-20T13:59:11;97017.16;;;34.17;16.44
54994;BME280;40891;47.242;8.648;2023-02-20T14:02:01;97029.13;;;32.54;18.85
54994;BME280;40891;47.242;8.648;2023-02-20T14:04:27;97016.03;;;33.69;16.99
54994;BME280;40891;47.242;8.648;2023-02-20T14:06:54;97020.19;;;33.76;17.37
54994;BME280;40891;47.242;8.648;2023-02-20T14:09:22;97013.97;;;31.74;19.16
54994;BME280;40891;47.242;8.648;2023-02-20T14:11:50;97012.22;;;32.83;18.05
54994;BME280;40891;47.242;8.648;2023-02-20T14:14:27;97008.19;;;33.45;16.99
54994;BME280;40891;47.242;8.648;2023-02-20T14:17:03;97009.19;;;33.23;17.37
54994;BME280;40891;47.242;8.648;2023-02-20T14:19:29;96993.31;;;33.14;18.43
54994;BME280;40891;47.242;8.648;2023-02-20T14:21:54;97006.38;;;32.41;18.31
54994;BME280;40891;47.242;8.648;2023-02-20T14:24:23;96988.56;;;33.09;17.01
54994;BME280;40891;47.242;8.648;2023-02-20T14:26:50;96995.16;;;34.49;15.99
54994;BME280;40891;47.242;8.648;2023-02-20T14:29:27;96993.41;;;34.09;16.54
54994;BME280;40891;47.242;8.648;2023-02-20T14:31:54;96998.88;;;33.71;17.14
54994;BME280;40891;47.242;8.648;2023-02-20T14:42:21;96988.00;;;32.61;16.97
54994;BME280;40891;47.242;8.648;2023-02-20T14:44:49;96987.97;;;31.97;17.97
54994;BME280;40891;47.242;8.648;2023-02-20T14:47:16;96980.50;;;33.25;17.20